< Cyclone 197613 1976 Season Cyclone 197616 >
Cyclone 197615 (WATOREA)
General InformationTrack Information on Google MapsDetailed Wind Information || ResourceGoogle EarthGE AnimationAtom FeedGeoJSON
Detalied Best Track (Time Zone = UTC)
Year Month Day Hour Lat. Long. Pressure (hPa) Wind (kt) Class Image Chart
1976 4 25 00 -8.1 155.0 1004 25 2 -- --
1976 4 25 11 -9.4 152.6 998 30 2 -- --
1976 4 25 17 -10.6 152.0 996 35 3 -- --
1976 4 25 23 -11.6 151.4 994 40 3 -- --
1976 4 26 05 -12.5 150.6 988 50 4 -- --
1976 4 26 11 -13.0 149.9 982 50 4 -- --
1976 4 26 17 -13.9 149.1 976 60 4 -- --
1976 4 26 23 -14.8 148.4 970 70 5 -- --
1976 4 27 02 -15.1 148.0 970 70 5 -- --
1976 4 27 05 -15.5 147.8 970 75 5 -- --
1976 4 27 08 -15.8 147.6 970 80 5 -- --
1976 4 27 11 -16.2 147.8 970 90 5 -- --
1976 4 27 14 -16.8 148.2 974 90 5 -- --
1976 4 27 17 -17.4 148.6 978 90 5 -- --
1976 4 27 23 -19.1 149.8 980 90 5 -- --
1976 4 28 05 -20.8 151.2 980 70 5 -- --
1976 4 28 11 -22.4 152.9 980 60 4 -- --
1976 4 28 17 -24.4 155.1 990 50 4 -- --
1976 4 28 23 -27.0 158.9 995 40 3 -- --
1976 4 29 12 -31.9 164.0 985 45 3 -- --
< Cyclone 197613 1976 Season Cyclone 197616 >

Help